< < Back
Terminal Aerodrome Forecast


Current Version              Previous Versions:   1  2  3  4  5  6  7  8  9  

Terminal Aerodrome Forecast

834
FTUS42 KJAX 060540
TAFSSI
TAF
KSSI 060540Z 0606/0706 00000KT P6SM BKN008 BKN250
     FM060900 00000KT P6SM SCT009 BKN250
     FM061300 26008KT P6SM SCT025 SCT250
     FM061600 14010G15KT P6SM VCSH SCT040 SCT250
     FM061900 13011G16KT P6SM VCTS SCT045CB SCT150 BKN250 PROB30
      0619/0623 VRB15G25KT 3SM TSRA BR SCT020 BKN035CB OVC090
     FM070000 16008KT P6SM VCSH SCT030 BKN090 OVC250=

Latest METAR

703
SAUS70 KWBC 061300 RRW
MTRSSI
METAR KSSI 061253Z AUTO 30004KT 10SM CLR 23/21 A3017 RMK AO2 SLP218
T02330211


USA.gov is the U.S. government's official web portal to all federal, state and local government web resources and services.